EGWU - Northolt
Distance from station: E 5mi, 14km
Updated: 10/19/2017 9:50pm
Mostly Cloudy
Mostly Cloudy
 Wind from SW
Wind: SW 15 mph , 24 km/h
Temperature: 54°F , 12°C
Dew Point: 52°F , 11°C
Humidity: 94%
Barometer: 29.44 inHg , 997 hPa
Clouds: Mostly Cloudy
Visibility: 5 miles , 8 km
Cloud details: Mostly Cloudy 1200 ft
Mostly Cloudy 1800 ft
2017/10/20 04:50 EGWU 200450Z AUTO 23013KT 8000 // BKN012/// BKN018/// 12/11 Q0997